Time;durP1;ratioP1;P1;durP2;ratioP2;P2;SDS_P1;SDS_P2;PMS_P1;PMS_P2;Temp;Humidity;BMP_temperature;BMP_pressure;BME280_temperature;BME280_humidity;BME280_pressure;Samples;Min_cycle;Max_cycle;Signal;HPM_P1;HPM_P2
2021/08/17 00:02:09;;;;;;;15.23;5.68;;;11.10;99.90;;;;;;4977154;28;20072;-80
2021/08/17 00:04:36;;;;;;;14.95;4.55;;;11.00;99.90;;;;;;4982106;28;20042;-80
2021/08/17 00:07:03;;;;;;;14.20;5.20;;;11.00;99.90;;;;;;4969361;28;20047;-81
2021/08/17 00:09:31;;;;;;;14.30;5.47;;;11.10;99.90;;;;;;4990724;28;20441;-81
2021/08/17 00:11:58;;;;;;;21.08;6.05;;;11.00;99.90;;;;;;5022387;28;20055;-81
2021/08/17 00:14:25;;;;;;;21.40;6.35;;;11.00;99.90;;;;;;4992161;28;20035;-82
2021/08/17 00:16:51;;;;;;;21.08;6.00;;;11.00;99.90;;;;;;5018458;28;20030;-83
2021/08/17 00:19:18;;;;;;;19.02;5.60;;;11.10;99.90;;;;;;5011449;28;20050;-85
2021/08/17 00:21:45;;;;;;;20.35;4.88;;;11.10;99.90;;;;;;5015382;28;20042;-85
2021/08/17 00:24:12;;;;;;;18.85;6.30;;;11.10;99.90;;;;;;4996756;28;20050;-85
2021/08/17 00:26:38;;;;;;;15.15;5.57;;;11.20;99.90;;;;;;4999490;28;20232;-85
2021/08/17 00:29:05;;;;;;;17.08;5.47;;;11.20;99.90;;;;;;4979800;28;20112;-86
2021/08/17 00:31:32;;;;;;;20.00;5.18;;;11.10;99.90;;;;;;5010479;28;20636;-84
2021/08/17 00:33:59;;;;;;;22.45;5.82;;;11.10;99.90;;;;;;4964303;28;20148;-85
2021/08/17 00:36:29;;;;;;;13.32;4.60;;;11.10;99.90;;;;;;4951785;28;20510;-84
2021/08/17 00:38:56;;;;;;;16.35;5.50;;;11.10;99.90;;;;;;4988934;28;20066;-84
2021/08/17 00:41:23;;;;;;;20.25;4.88;;;11.10;99.90;;;;;;4971405;28;20046;-85
2021/08/17 00:43:50;;;;;;;19.73;5.93;;;11.10;99.90;;;;;;4972641;28;20457;-83
2021/08/17 00:46:17;;;;;;;19.05;6.10;;;11.10;99.90;;;;;;4980022;28;20084;-83
2021/08/17 00:48:44;;;;;;;17.80;5.05;;;11.20;99.90;;;;;;4975381;28;20476;-83
2021/08/17 00:51:11;;;;;;;18.35;5.43;;;11.20;99.90;;;;;;4971558;28;20070;-86
2021/08/17 00:53:38;;;;;;;20.23;7.05;;;11.20;99.90;;;;;;4979513;28;20046;-85
2021/08/17 00:56:05;;;;;;;19.58;7.45;;;11.20;99.90;;;;;;4958339;28;20518;-83
2021/08/17 00:58:33;;;;;;;24.85;6.28;;;11.20;99.90;;;;;;4971171;28;20145;-83
2021/08/17 01:01:02;;;;;;;19.55;5.45;;;11.10;99.90;;;;;;4971099;28;20058;-83
2021/08/17 01:03:30;;;;;;;25.55;5.70;;;11.10;99.90;;;;;;4971243;28;20427;-84
2021/08/17 01:05:59;;;;;;;18.73;5.90;;;11.10;99.90;;;;;;4971339;28;20168;-83
2021/08/17 01:08:27;;;;;;;21.52;7.20;;;11.20;99.90;;;;;;4972010;28;20293;-85
2021/08/17 01:10:54;;;;;;;14.00;5.50;;;11.20;99.90;;;;;;4970990;28;20497;-84
2021/08/17 01:13:24;;;;;;;24.15;5.30;;;11.10;99.90;;;;;;4970473;28;20323;-84
2021/08/17 01:15:52;;;;;;;15.63;5.32;;;11.20;99.90;;;;;;4956628;28;20105;-84
2021/08/17 01:18:18;;;;;;;17.40;6.40;;;11.10;99.90;;;;;;4966896;28;20049;-84
2021/08/17 01:20:49;;;;;;;20.15;5.55;;;11.20;99.90;;;;;;4970918;28;20055;-84
2021/08/17 01:23:19;;;;;;;26.27;5.85;;;11.20;99.90;;;;;;4976233;28;20104;-84
2021/08/17 01:25:46;;;;;;;17.95;6.28;;;11.20;99.90;;;;;;4960667;28;20046;-84
2021/08/17 01:28:13;;;;;;;17.73;5.75;;;11.20;99.90;;;;;;4952629;28;20070;-84
2021/08/17 01:30:40;;;;;;;19.30;6.20;;;11.20;99.90;;;;;;4987185;28;20069;-82
2021/08/17 01:33:07;;;;;;;27.23;6.93;;;11.20;99.90;;;;;;4991060;28;20047;-81
2021/08/17 01:35:34;;;;;;;20.60;7.15;;;11.10;99.90;;;;;;5005727;28;20141;-80
2021/08/17 01:38:05;;;;;;;27.05;7.82;;;11.00;99.90;;;;;;4985943;28;20088;-82
2021/08/17 01:40:32;;;;;;;20.60;6.20;;;11.00;99.90;;;;;;4966984;28;20465;-82
2021/08/17 01:42:59;;;;;;;24.23;6.75;;;11.10;99.90;;;;;;4984455;28;20077;-83
2021/08/17 01:45:26;;;;;;;21.55;7.00;;;11.10;99.90;;;;;;4993558;28;20050;-83
2021/08/17 01:47:53;;;;;;;26.30;7.50;;;11.10;99.90;;;;;;4969640;28;20065;-82
2021/08/17 01:50:23;;;;;;;30.88;7.30;;;11.20;99.90;;;;;;4971193;28;20510;-81
2021/08/17 01:52:49;;;;;;;17.15;5.30;;;11.10;99.90;;;;;;4972202;28;20513;-81
2021/08/17 01:55:16;;;;;;;27.63;6.80;;;11.10;99.90;;;;;;4980561;28;20060;-81
2021/08/17 01:57:43;;;;;;;18.77;6.13;;;11.20;99.90;;;;;;4989463;28;20045;-82
2021/08/17 02:00:12;;;;;;;17.00;6.78;;;11.20;99.90;;;;;;4974718;28;20046;-82
2021/08/17 02:02:40;;;;;;;21.77;6.13;;;11.20;99.90;;;;;;4970400;28;20050;-82
2021/08/17 02:05:08;;;;;;;21.48;5.68;;;11.20;99.90;;;;;;4953747;28;20077;-83
2021/08/17 02:07:36;;;;;;;19.38;6.35;;;11.20;99.90;;;;;;4954896;28;20074;-83
2021/08/17 02:10:05;;;;;;;13.77;5.70;;;11.20;99.90;;;;;;4985471;28;20057;-84
2021/08/17 02:12:32;;;;;;;12.20;3.97;;;11.20;99.90;;;;;;4970744;28;20058;-86
2021/08/17 02:14:58;;;;;;;19.08;5.53;;;11.20;99.90;;;;;;4987799;28;20058;-83
2021/08/17 02:17:25;;;;;;;21.23;5.35;;;11.30;99.90;;;;;;4982918;28;20097;-86
2021/08/17 02:19:52;;;;;;;10.50;3.92;;;11.30;99.90;;;;;;4979418;28;20117;-84
2021/08/17 02:22:18;;;;;;;20.52;4.07;;;11.30;99.90;;;;;;4954693;28;20038;-82
2021/08/17 02:24:45;;;;;;;13.13;4.95;;;11.30;99.90;;;;;;4981724;28;20046;-84
2021/08/17 02:27:12;;;;;;;23.05;4.75;;;11.30;99.90;;;;;;4987739;28;20038;-86
2021/08/17 02:29:39;;;;;;;15.77;4.80;;;11.30;99.90;;;;;;4981730;28;20061;-84
2021/08/17 02:32:06;;;;;;;10.20;4.22;;;11.30;99.90;;;;;;4970446;28;20042;-83
2021/08/17 02:34:33;;;;;;;22.98;5.65;;;11.30;99.90;;;;;;4971645;28;20042;-83
2021/08/17 02:36:59;;;;;;;16.20;4.10;;;11.40;99.90;;;;;;4953411;28;20057;-84
2021/08/17 02:39:26;;;;;;;14.02;4.90;;;11.30;99.90;;;;;;4969442;28;20034;-84
2021/08/17 02:41:53;;;;;;;17.50;5.18;;;11.30;99.90;;;;;;4967951;28;20217;-84
2021/08/17 02:44:20;;;;;;;15.82;5.55;;;11.40;99.90;;;;;;4968557;28;20053;-82
2021/08/17 02:46:46;;;;;;;17.13;4.13;;;11.40;99.90;;;;;;4981188;28;20154;-84
2021/08/17 02:49:13;;;;;;;23.05;4.70;;;11.30;99.90;;;;;;4973956;28;20516;-84
2021/08/17 02:51:40;;;;;;;22.05;5.43;;;11.30;99.90;;;;;;4953886;28;20046;-84
2021/08/17 02:54:07;;;;;;;13.27;4.25;;;11.30;99.90;;;;;;4978472;28;20049;-84
2021/08/17 02:56:34;;;;;;;23.60;5.28;;;11.30;99.90;;;;;;4984138;28;20113;-84
2021/08/17 02:59:00;;;;;;;16.80;4.75;;;11.30;99.90;;;;;;4987523;28;20068;-83
2021/08/17 03:01:27;;;;;;;24.52;5.45;;;11.40;99.90;;;;;;4979837;28;20090;-85
2021/08/17 03:03:54;;;;;;;15.40;4.30;;;11.30;99.90;;;;;;4989481;28;20053;-84
2021/08/17 03:06:21;;;;;;;19.00;4.63;;;11.30;99.90;;;;;;4972637;28;20104;-84
2021/08/17 03:08:48;;;;;;;15.75;4.50;;;11.40;99.90;;;;;;4986295;28;20073;-82
2021/08/17 03:11:15;;;;;;;13.52;3.65;;;11.30;99.90;;;;;;4969952;28;20052;-84
2021/08/17 03:13:42;;;;;;;19.67;4.93;;;11.30;99.90;;;;;;4970272;28;20129;-85
2021/08/17 03:16:08;;;;;;;14.38;4.28;;;11.40;99.90;;;;;;4975870;28;20272;-82
2021/08/17 03:18:35;;;;;;;17.50;3.90;;;11.40;99.90;;;;;;4997299;28;20504;-82
2021/08/17 03:21:02;;;;;;;26.08;5.35;;;11.40;99.90;;;;;;4955454;28;20128;-82
2021/08/17 03:23:29;;;;;;;22.02;4.90;;;11.40;99.90;;;;;;4979076;28;20080;-82
2021/08/17 03:25:56;;;;;;;16.98;4.45;;;11.40;99.90;;;;;;4975210;28;20140;-82
2021/08/17 03:28:23;;;;;;;20.63;4.28;;;11.40;99.90;;;;;;4972560;28;20073;-83
2021/08/17 03:30:50;;;;;;;17.73;5.65;;;11.40;99.90;;;;;;4978816;28;20057;-82
2021/08/17 03:33:17;;;;;;;30.13;5.72;;;11.30;99.90;;;;;;4971411;28;20311;-83
2021/08/17 03:35:44;;;;;;;16.30;4.80;;;11.40;99.90;;;;;;4952804;28;20050;-83
2021/08/17 03:38:10;;;;;;;29.42;5.85;;;11.40;99.90;;;;;;4954049;28;20058;-82
2021/08/17 03:40:37;;;;;;;23.83;5.45;;;11.40;99.90;;;;;;4951793;28;20062;-84
2021/08/17 03:43:04;;;;;;;18.15;5.75;;;11.40;99.90;;;;;;4969795;28;20062;-83
2021/08/17 03:45:32;;;;;;;19.65;6.35;;;11.40;99.90;;;;;;4973850;28;20042;-84
2021/08/17 03:47:59;;;;;;;19.35;4.95;;;11.30;99.90;;;;;;4972346;28;20072;-83
2021/08/17 03:50:26;;;;;;;19.48;5.72;;;11.40;99.90;;;;;;4982163;28;20046;-83
2021/08/17 03:52:52;;;;;;;20.20;6.38;;;11.30;99.90;;;;;;4969865;28;20692;-82
2021/08/17 03:55:20;;;;;;;23.83;5.50;;;11.40;99.90;;;;;;4978615;28;20450;-82
2021/08/17 03:57:48;;;;;;;17.15;5.10;;;11.40;99.90;;;;;;4985998;28;20041;-81
2021/08/17 04:00:20;;;;;;;20.00;6.20;;;11.40;99.90;;;;;;4977054;28;20577;-81
2021/08/17 04:02:47;;;;;;;18.48;5.65;;;11.30;99.90;;;;;;4952218;28;20043;-82
2021/08/17 04:05:15;;;;;;;22.25;5.25;;;11.40;99.90;;;;;;4973912;28;20060;-82
2021/08/17 04:07:42;;;;;;;20.50;6.03;;;11.40;99.90;;;;;;4981109;28;20292;-82
2021/08/17 04:10:09;;;;;;;18.17;4.90;;;11.30;99.90;;;;;;4985045;28;20050;-82
2021/08/17 04:12:37;;;;;;;22.60;6.22;;;11.40;99.90;;;;;;4950617;28;20054;-83
2021/08/17 04:15:06;;;;;;;25.38;6.05;;;11.40;99.90;;;;;;4972383;28;20468;-83
2021/08/17 04:17:33;;;;;;;27.42;6.03;;;11.40;99.90;;;;;;4964205;28;20431;-83
2021/08/17 04:19:59;;;;;;;22.13;5.35;;;11.40;99.90;;;;;;4968708;28;20526;-81
2021/08/17 04:22:26;;;;;;;15.70;6.13;;;11.40;99.90;;;;;;4968667;28;20057;-81
2021/08/17 04:24:53;;;;;;;18.83;5.25;;;11.40;99.90;;;;;;4977130;28;20038;-81
2021/08/17 04:27:20;;;;;;;17.88;6.35;;;11.40;99.90;;;;;;4967516;28;20058;-83
2021/08/17 04:29:46;;;;;;;28.33;6.10;;;11.40;99.90;;;;;;4966700;28;20081;-82
2021/08/17 04:32:14;;;;;;;20.83;5.13;;;11.40;99.90;;;;;;4968629;28;20054;-81
2021/08/17 04:34:40;;;;;;;17.13;6.65;;;11.40;99.90;;;;;;4969340;28;20073;-81
2021/08/17 04:37:08;;;;;;;17.00;5.07;;;11.40;99.90;;;;;;4951917;28;20517;-82
2021/08/17 04:39:35;;;;;;;16.23;5.75;;;11.40;99.90;;;;;;4968266;28;20058;-81
2021/08/17 04:42:02;;;;;;;17.63;4.70;;;11.40;99.90;;;;;;4953001;28;20499;-81
2021/08/17 04:44:33;;;;;;;22.73;4.93;;;11.40;99.90;;;;;;4969933;28;20039;-81
2021/08/17 04:46:59;;;;;;;24.42;6.88;;;11.40;99.90;;;;;;4980750;28;20392;-81
2021/08/17 04:49:26;;;;;;;18.83;5.53;;;11.40;99.90;;;;;;4972496;28;20053;-82
2021/08/17 04:51:53;;;;;;;24.33;6.53;;;11.40;99.90;;;;;;4961924;28;20097;-82
2021/08/17 04:54:20;;;;;;;17.48;6.38;;;11.40;99.90;;;;;;4980789;28;20055;-81
2021/08/17 04:56:47;;;;;;;16.83;5.80;;;11.40;99.90;;;;;;4991192;28;20047;-82
2021/08/17 04:59:13;;;;;;;18.50;5.47;;;11.40;99.90;;;;;;4986050;28;20054;-81
2021/08/17 05:01:40;;;;;;;16.95;5.70;;;11.40;99.90;;;;;;4952389;28;20050;-81
2021/08/17 05:04:08;;;;;;;20.77;6.55;;;11.40;99.90;;;;;;4949892;28;20097;-81
2021/08/17 05:06:35;;;;;;;19.20;6.05;;;11.40;99.90;;;;;;4980386;28;20244;-80
2021/08/17 05:09:04;;;;;;;18.17;6.60;;;11.40;99.90;;;;;;4972086;28;20054;-80
2021/08/17 05:11:31;;;;;;;22.70;7.75;;;11.40;99.90;;;;;;4955378;28;20133;-81
2021/08/17 05:13:58;;;;;;;21.05;6.82;;;11.40;99.90;;;;;;4972355;28;20053;-80
2021/08/17 05:16:25;;;;;;;18.88;5.88;;;11.40;99.90;;;;;;4998158;28;20109;-81
2021/08/17 05:18:52;;;;;;;23.35;5.93;;;11.40;99.90;;;;;;4990454;28;20194;-81
2021/08/17 05:21:19;;;;;;;14.30;6.47;;;11.40;99.90;;;;;;4987377;28;20154;-80
2021/08/17 05:23:45;;;;;;;19.80;6.75;;;11.40;99.90;;;;;;4995133;28;20046;-79
2021/08/17 05:26:12;;;;;;;19.10;6.97;;;11.40;99.90;;;;;;4980084;28;20207;-80
2021/08/17 05:28:39;;;;;;;19.58;6.30;;;11.40;99.90;;;;;;4987918;28;20100;-80
2021/08/17 05:31:05;;;;;;;15.85;6.20;;;11.40;99.90;;;;;;5020379;28;20046;-81
2021/08/17 05:33:32;;;;;;;16.17;6.50;;;11.50;99.90;;;;;;4993745;28;20498;-81
2021/08/17 05:35:59;;;;;;;18.70;7.85;;;11.50;99.90;;;;;;4970756;28;20057;-81
2021/08/17 05:38:26;;;;;;;22.70;7.28;;;11.50;99.90;;;;;;4971576;28;20061;-81
2021/08/17 05:40:52;;;;;;;23.08;8.15;;;11.50;99.90;;;;;;4969472;28;20050;-79
2021/08/17 05:43:19;;;;;;;23.90;7.25;;;11.50;99.90;;;;;;4972167;28;20046;-80
2021/08/17 05:46:03;;;;;;;27.30;7.85;;;11.50;99.90;;;;;;4981249;28;20050;-80
2021/08/17 05:48:31;;;;;;;20.33;7.47;;;11.50;99.90;;;;;;4986619;28;20175;-80
2021/08/17 05:50:58;;;;;;;19.25;7.57;;;11.50;99.90;;;;;;4990297;28;20046;-81
2021/08/17 05:53:25;;;;;;;22.15;7.88;;;11.60;99.90;;;;;;4988526;28;20046;-80
2021/08/17 05:55:51;;;;;;;20.98;7.88;;;11.60;99.90;;;;;;4981647;28;20056;-80
2021/08/17 05:58:18;;;;;;;20.45;8.07;;;11.60;99.90;;;;;;5003176;28;20054;-80
2021/08/17 06:00:45;;;;;;;31.02;8.55;;;11.60;99.90;;;;;;5006021;28;20181;-80
2021/08/17 06:03:12;;;;;;;25.50;9.02;;;11.60;99.90;;;;;;4986590;28;20148;-80
2021/08/17 06:05:39;;;;;;;22.85;8.98;;;11.70;99.90;;;;;;4988825;28;20131;-80
2021/08/17 06:08:06;;;;;;;20.17;7.40;;;11.80;99.90;;;;;;4990238;28;20076;-80
2021/08/17 06:10:33;;;;;;;20.83;9.77;;;11.70;99.90;;;;;;4989144;28;20567;-79
2021/08/17 06:13:00;;;;;;;22.63;9.07;;;11.80;99.90;;;;;;4983930;28;20064;-80
2021/08/17 06:15:26;;;;;;;27.05;9.52;;;11.80;99.90;;;;;;4980836;28;20283;-79
2021/08/17 06:17:54;;;;;;;29.77;9.35;;;11.70;99.90;;;;;;4972162;28;20131;-80
2021/08/17 06:20:22;;;;;;;29.23;10.27;;;11.80;99.90;;;;;;5002979;28;20133;-80
2021/08/17 06:22:48;;;;;;;26.88;9.68;;;11.90;99.90;;;;;;4988398;28;20050;-80
2021/08/17 06:25:15;;;;;;;26.00;10.30;;;11.80;99.90;;;;;;4964433;28;20705;-80
2021/08/17 06:27:42;;;;;;;31.35;10.38;;;11.80;99.90;;;;;;4986659;28;20058;-79
2021/08/17 06:30:09;;;;;;;24.52;9.38;;;11.80;99.90;;;;;;4971265;28;20064;-79
2021/08/17 06:32:55;;;;;;;29.08;10.63;;;11.90;99.90;;;;;;4973526;28;20051;-80
2021/08/17 06:35:23;;;;;;;25.88;10.63;;;12.00;99.90;;;;;;4969100;28;20050;-80
2021/08/17 06:37:50;;;;;;;32.22;11.00;;;12.00;99.90;;;;;;4969046;28;20042;-75
2021/08/17 06:40:17;;;;;;;30.27;10.55;;;12.10;99.90;;;;;;4982970;28;20442;-72
2021/08/17 06:42:44;;;;;;;21.77;9.98;;;12.10;99.90;;;;;;4988601;28;20104;-72
2021/08/17 06:45:12;;;;;;;25.65;10.70;;;12.00;99.90;;;;;;4996736;28;20073;-72
2021/08/17 06:47:45;;;;;;;28.65;9.27;;;12.10;99.90;;;;;;4991203;28;20050;-73
2021/08/17 06:50:32;;;;;;;35.30;13.18;;;12.10;99.90;;;;;;4984750;28;20081;-72
2021/08/17 06:52:59;;;;;;;32.67;11.98;;;12.20;99.90;;;;;;4983830;28;20568;-73
2021/08/17 06:55:26;;;;;;;36.60;11.80;;;12.30;99.90;;;;;;4966411;28;20058;-72
2021/08/17 06:57:53;;;;;;;32.00;12.05;;;12.30;99.90;;;;;;4983396;28;20050;-73
2021/08/17 07:00:20;;;;;;;37.08;12.57;;;12.30;99.90;;;;;;4984806;28;20178;-73
2021/08/17 07:02:47;;;;;;;29.83;11.45;;;12.40;99.90;;;;;;4984533;28;20277;-73
2021/08/17 07:05:29;;;;;;;28.88;12.02;;;12.40;99.90;;;;;;4983112;28;20054;-72
2021/08/17 07:07:56;;;;;;;28.35;11.85;;;12.50;99.90;;;;;;4967374;28;20322;-72
2021/08/17 07:10:23;;;;;;;22.45;10.13;;;12.60;99.90;;;;;;4982987;28;20061;-73
2021/08/17 07:13:10;;;;;;;31.05;11.57;;;12.60;99.90;;;;;;5002268;28;20474;-72
2021/08/17 07:15:37;;;;;;;28.50;10.70;;;12.70;99.90;;;;;;4990853;28;20047;-73
2021/08/17 07:18:05;;;;;;;32.28;11.65;;;12.70;99.90;;;;;;4993913;28;20054;-73
2021/08/17 07:20:32;;;;;;;31.88;11.70;;;12.80;99.90;;;;;;4986075;28;20073;-73
2021/08/17 07:22:59;;;;;;;29.40;10.35;;;12.80;99.90;;;;;;4981424;28;20132;-73
2021/08/17 07:25:26;;;;;;;26.77;9.45;;;12.80;99.90;;;;;;4966378;28;20097;-73
2021/08/17 07:27:53;;;;;;;29.73;11.30;;;12.70;99.90;;;;;;4983059;28;20053;-73
2021/08/17 07:30:20;;;;;;;33.65;12.48;;;12.60;99.90;;;;;;4983779;28;20077;-73
2021/08/17 07:32:46;;;;;;;29.05;11.98;;;12.70;99.90;;;;;;4983532;28;20126;-73
2021/08/17 07:35:17;;;;;;;23.90;9.35;;;12.80;99.90;;;;;;4963954;28;20056;-72
2021/08/17 07:37:45;;;;;;;25.23;10.65;;;12.80;99.90;;;;;;4982825;28;20058;-73
2021/08/17 07:40:13;;;;;;;34.03;9.98;;;12.90;99.90;;;;;;4981663;28;20082;-72
2021/08/17 07:42:40;;;;;;;26.13;11.13;;;13.00;99.90;;;;;;4967277;28;20069;-73
2021/08/17 07:45:11;;;;;;;29.55;10.45;;;13.00;99.90;;;;;;4993043;28;20050;-73
2021/08/17 07:47:39;;;;;;;35.10;10.68;;;13.10;99.90;;;;;;4990432;28;20112;-73
2021/08/17 07:50:08;;;;;;;22.13;8.35;;;13.10;99.90;;;;;;4982143;28;20526;-73
2021/08/17 07:52:35;;;;;;;19.77;7.93;;;13.20;99.90;;;;;;4982298;28;20054;-73
2021/08/17 07:55:11;;;;;;;20.02;8.30;;;13.30;99.90;;;;;;4966246;28;20153;-73
2021/08/17 07:57:39;;;;;;;20.30;9.50;;;13.40;99.90;;;;;;4984955;28;20553;-73
2021/08/17 08:00:08;;;;;;;28.45;11.30;;;13.50;99.90;;;;;;4982397;28;20058;-73
2021/08/17 08:02:35;;;;;;;25.02;10.27;;;13.60;99.90;;;;;;4983420;28;20141;-77
2021/08/17 08:05:04;;;;;;;26.10;10.32;;;13.70;99.90;;;;;;4982789;28;20097;-76
2021/08/17 08:07:30;;;;;;;24.83;9.43;;;13.80;99.90;;;;;;5010804;28;20042;-76
2021/08/17 08:09:57;;;;;;;26.25;9.98;;;13.80;99.90;;;;;;5021750;28;20049;-77
2021/08/17 08:12:24;;;;;;;21.52;9.60;;;13.90;99.90;;;;;;5000767;28;20116;-76
2021/08/17 08:14:52;;;;;;;29.48;9.70;;;13.90;99.90;;;;;;5006513;28;20095;-77
2021/08/17 08:17:18;;;;;;;20.13;9.23;;;13.90;99.90;;;;;;5010549;28;20576;-76
2021/08/17 08:19:45;;;;;;;22.70;9.02;;;13.90;99.90;;;;;;5001171;28;20065;-75
2021/08/17 08:22:12;;;;;;;26.70;11.23;;;13.90;99.90;;;;;;5001708;28;20041;-76
2021/08/17 08:24:39;;;;;;;21.95;9.65;;;13.90;99.90;;;;;;5002667;28;20058;-76
2021/08/17 08:27:06;;;;;;;23.50;9.93;;;14.00;99.90;;;;;;5000604;28;20529;-78
2021/08/17 08:29:33;;;;;;;24.25;10.20;;;14.00;99.90;;;;;;5004889;28;20054;-75
2021/08/17 08:32:00;;;;;;;26.85;9.90;;;14.00;99.90;;;;;;5000094;28;20413;-77
2021/08/17 08:34:30;;;;;;;23.55;9.73;;;14.10;99.90;;;;;;4986953;28;20046;-77
2021/08/17 08:36:56;;;;;;;22.10;9.27;;;14.20;99.90;;;;;;5002021;28;20054;-76
2021/08/17 08:39:25;;;;;;;22.40;8.50;;;14.20;99.90;;;;;;5010056;28;20046;-76
2021/08/17 08:41:55;;;;;;;21.85;9.90;;;14.20;99.90;;;;;;5023424;28;20053;-75
2021/08/17 08:44:22;;;;;;;19.02;9.65;;;14.30;99.90;;;;;;5018285;28;20103;-75
2021/08/17 08:46:50;;;;;;;17.92;9.35;;;14.40;99.90;;;;;;5013050;28;20046;-76
2021/08/17 08:49:18;;;;;;;17.38;8.52;;;14.40;99.90;;;;;;5013949;28;20074;-76
2021/08/17 08:51:48;;;;;;;26.25;10.82;;;14.50;99.90;;;;;;5001599;28;20050;-76
2021/08/17 08:54:20;;;;;;;24.80;10.82;;;14.60;99.90;;;;;;4997080;28;20050;-75
2021/08/17 08:56:47;;;;;;;20.02;12.32;;;14.70;99.90;;;;;;4992891;28;20382;-76
2021/08/17 08:59:14;;;;;;;28.75;13.05;;;14.70;99.90;;;;;;4968639;28;20348;-77
2021/08/17 09:01:46;;;;;;;23.05;12.10;;;14.70;99.90;;;;;;4993964;28;20045;-77
2021/08/17 09:04:15;;;;;;;30.70;14.10;;;14.80;99.90;;;;;;5004286;28;20065;-75
2021/08/17 09:06:53;;;;;;;23.55;13.57;;;14.70;99.90;;;;;;5004978;28;20115;-75
2021/08/17 09:09:20;;;;;;;25.00;13.27;;;14.80;99.90;;;;;;5005264;28;20084;-76
2021/08/17 09:11:50;;;;;;;23.83;13.27;;;15.00;99.90;;;;;;4987688;28;20053;-75
2021/08/17 09:14:26;;;;;;;25.67;13.98;;;15.00;99.90;;;;;;4997328;28;20033;-76
2021/08/17 09:17:05;;;;;;;27.33;13.95;;;15.10;99.90;;;;;;5006578;28;20054;-76
2021/08/17 09:19:51;;;;;;;25.13;13.98;;;15.10;99.90;;;;;;5003250;28;20156;-76
2021/08/17 09:22:26;;;;;;;25.92;14.02;;;15.20;99.90;;;;;;5002801;28;20477;-76
2021/08/17 09:24:56;;;;;;;28.17;14.95;;;15.20;99.90;;;;;;4986376;28;20529;-76
2021/08/17 09:27:32;;;;;;;23.65;15.50;;;15.30;99.90;;;;;;4983860;28;20053;-76
2021/08/17 09:30:07;;;;;;;29.98;16.73;;;15.40;99.90;;;;;;4999428;28;20493;-76
2021/08/17 09:32:54;;;;;;;26.33;16.70;;;15.50;99.90;;;;;;4985473;28;20054;-76
2021/08/17 09:35:23;;;;;;;26.08;15.65;;;15.80;99.90;;;;;;5019353;28;20502;-77
2021/08/17 09:38:15;;;;;;;27.95;17.02;;;15.70;99.90;;;;;;5004355;28;20068;-77
2021/08/17 09:40:42;;;;;;;31.02;17.02;;;15.70;99.90;;;;;;5004421;28;20052;-75
2021/08/17 09:43:17;;;;;;;24.40;15.50;;;15.70;99.90;;;;;;5007419;28;20056;-75
2021/08/17 09:45:45;;;;;;;28.67;17.23;;;15.50;99.90;;;;;;4995105;28;20062;-77
2021/08/17 09:48:14;;;;;;;25.58;16.05;;;15.60;99.90;;;;;;4994036;28;20038;-77
2021/08/17 09:50:42;;;;;;;26.02;16.38;;;15.80;99.90;;;;;;5002361;28;20038;-77
2021/08/17 09:53:11;;;;;;;28.48;16.90;;;15.90;99.90;;;;;;5002212;28;20613;-76
2021/08/17 09:55:44;;;;;;;26.63;17.73;;;15.90;99.90;;;;;;5004966;28;20120;-76
2021/08/17 09:58:21;;;;;;;33.78;17.23;;;16.00;99.90;;;;;;5005819;28;20352;-75
2021/08/17 10:00:49;;;;;;;31.05;19.00;;;15.80;99.90;;;;;;5015279;28;20050;-76
2021/08/17 10:03:18;;;;;;;29.55;18.35;;;15.70;99.90;;;;;;5023298;28;20056;-74
2021/08/17 10:05:45;;;;;;;30.40;19.65;;;15.80;99.90;;;;;;5022165;28;20049;-76
2021/08/17 10:08:16;;;;;;;28.73;18.73;;;15.80;99.90;;;;;;5006489;28;20056;-76
2021/08/17 10:10:47;;;;;;;31.70;19.33;;;15.70;99.90;;;;;;5023467;28;20143;-77
2021/08/17 10:13:19;;;;;;;28.70;19.30;;;15.80;99.90;;;;;;5009816;28;20059;-76
2021/08/17 10:15:48;;;;;;;27.33;18.33;;;15.80;99.90;;;;;;5011171;28;20042;-77
2021/08/17 10:18:22;;;;;;;28.23;17.75;;;15.80;99.90;;;;;;4989890;28;20137;-76
2021/08/17 10:20:52;;;;;;;28.40;17.75;;;15.90;99.90;;;;;;5005729;28;20056;-76
2021/08/17 10:23:21;;;;;;;25.13;16.05;;;15.90;99.90;;;;;;5007400;28;20069;-77
2021/08/17 10:25:51;;;;;;;31.42;19.23;;;15.90;99.90;;;;;;5002902;28;20085;-76
2021/08/17 10:28:30;;;;;;;29.95;17.25;;;15.90;99.90;;;;;;5001507;28;20152;-76
2021/08/17 10:30:59;;;;;;;30.33;18.58;;;15.90;99.90;;;;;;4985486;28;20060;-77
2021/08/17 10:33:45;;;;;;;27.83;19.33;;;15.90;99.90;;;;;;5003447;28;20058;-76
2021/08/17 10:36:30;;;;;;;34.28;19.60;;;15.90;99.90;;;;;;5003655;28;20053;-76
2021/08/17 10:38:58;;;;;;;29.45;19.15;;;15.90;99.90;;;;;;4985769;28;20520;-78
2021/08/17 10:41:28;;;;;;;28.13;19.17;;;15.90;99.90;;;;;;5001691;28;20050;-77
2021/08/17 10:43:55;;;;;;;28.40;19.80;;;15.90;99.90;;;;;;5004848;28;20050;-76
2021/08/17 10:46:49;;;;;;;33.33;20.40;;;16.10;99.90;;;;;;5010153;28;20049;-76
2021/08/17 10:49:28;;;;;;;34.60;20.48;;;16.20;99.90;;;;;;5001503;28;20335;-77
2021/08/17 10:52:00;;;;;;;29.65;19.88;;;16.30;99.90;;;;;;5000463;28;20255;-77
2021/08/17 10:54:28;;;;;;;33.33;20.88;;;16.20;99.90;;;;;;5001464;28;20054;-76
2021/08/17 10:56:54;;;;;;;32.97;20.33;;;16.10;99.90;;;;;;5001124;28;20058;-77
2021/08/17 10:59:41;;;;;;;30.63;19.58;;;16.20;99.90;;;;;;4985073;28;20053;-76
2021/08/17 11:02:09;;;;;;;30.30;21.10;;;16.40;99.90;;;;;;4999406;28;20054;-76
2021/08/17 11:04:47;;;;;;;28.73;20.30;;;16.70;99.90;;;;;;4997884;28;20125;-76
2021/08/17 11:07:26;;;;;;;29.85;20.42;;;16.90;99.90;;;;;;5000765;28;20050;-76
2021/08/17 11:09:55;;;;;;;28.70;20.70;;;17.20;99.90;;;;;;5003200;28;20115;-76
2021/08/17 11:12:31;;;;;;;25.65;19.92;;;17.30;99.90;;;;;;4985571;28;20046;-76
2021/08/17 11:14:58;;;;;;;30.77;21.05;;;17.40;99.90;;;;;;5011970;28;20077;-77
2021/08/17 11:17:25;;;;;;;30.30;20.83;;;17.30;99.90;;;;;;5009929;28;20630;-76
2021/08/17 11:19:53;;;;;;;31.02;21.27;;;17.10;99.90;;;;;;5001853;28;20050;-75
2021/08/17 11:22:24;;;;;;;31.55;21.83;;;17.20;99.90;;;;;;5002291;28;20100;-76
2021/08/17 11:24:57;;;;;;;33.20;21.58;;;16.90;99.90;;;;;;5000943;28;20104;-77
2021/08/17 11:27:27;;;;;;;35.45;21.55;;;16.90;99.90;;;;;;5022398;28;20060;-75
2021/08/17 11:30:03;;;;;;;37.78;23.98;;;16.70;99.90;;;;;;5023007;28;20037;-76
2021/08/17 11:32:40;;;;;;;31.60;21.90;;;16.60;99.90;;;;;;5021171;28;20124;-75
2021/08/17 11:35:09;;;;;;;34.78;22.92;;;16.50;99.90;;;;;;4988502;28;20502;-76
2021/08/17 11:37:41;;;;;;;34.50;24.13;;;16.60;99.90;;;;;;5000064;28;20056;-75
2021/08/17 11:40:11;;;;;;;34.38;23.15;;;16.60;99.90;;;;;;4997737;28;20524;-75
2021/08/17 11:42:41;;;;;;;36.13;21.30;;;16.50;99.90;;;;;;5005103;28;20081;-75
2021/08/17 11:45:31;;;;;;;32.60;21.38;;;16.10;99.90;;;;;;5019780;28;20119;-76
2021/08/17 11:48:00;;;;;;;43.40;21.80;;;15.80;99.90;;;;;;5007045;28;20120;-76
2021/08/17 11:50:27;;;;;;;37.63;20.63;;;15.50;99.90;;;;;;5003655;28;20049;-76
2021/08/17 11:52:56;;;;;;;35.25;22.13;;;15.60;99.90;;;;;;5002768;28;20081;-75
2021/08/17 11:55:25;;;;;;;36.03;20.65;;;15.90;99.90;;;;;;5003328;28;20216;-76
2021/08/17 11:58:14;;;;;;;39.22;23.13;;;16.10;99.90;;;;;;5002194;28;20063;-77
2021/08/17 12:00:47;;;;;;;37.53;21.98;;;16.40;99.90;;;;;;5004391;28;20058;-76
2021/08/17 12:03:14;;;;;;;38.25;23.55;;;16.40;99.90;;;;;;5003214;28;20064;-76
2021/08/17 12:05:41;;;;;;;43.65;23.23;;;16.30;99.90;;;;;;5002714;28;20045;-76
2021/08/17 12:08:11;;;;;;;43.33;24.33;;;16.30;99.90;;;;;;4986876;28;20193;-77
2021/08/17 12:10:39;;;;;;;34.55;21.38;;;16.30;99.90;;;;;;5006842;28;20057;-76
2021/08/17 12:13:11;;;;;;;34.80;22.48;;;16.30;99.90;;;;;;5004570;28;20144;-76
2021/08/17 12:15:46;;;;;;;37.88;23.38;;;16.30;99.90;;;;;;4987701;28;20049;-76
2021/08/17 12:18:16;;;;;;;37.97;24.67;;;16.30;99.90;;;;;;5017225;28;20064;-77
2021/08/17 12:20:49;;;;;;;36.42;23.77;;;16.30;99.90;;;;;;5025121;28;20111;-76
2021/08/17 12:23:23;;;;;;;39.17;23.90;;;16.20;99.90;;;;;;5024597;28;20045;-76
2021/08/17 12:25:55;;;;;;;39.92;21.58;;;16.30;99.90;;;;;;5023615;28;20034;-75
2021/08/17 12:28:31;;;;;;;37.28;22.00;;;16.30;99.90;;;;;;5009417;28;20512;-76
2021/08/17 12:31:19;;;;;;;37.72;23.13;;;16.40;99.90;;;;;;5009484;28;20481;-76
2021/08/17 12:33:50;;;;;;;38.33;20.40;;;16.60;99.90;;;;;;5006128;28;20053;-76
2021/08/17 12:36:22;;;;;;;31.70;19.98;;;16.50;99.90;;;;;;5008824;28;20049;-75
2021/08/17 12:38:50;;;;;;;32.38;20.15;;;16.30;99.90;;;;;;5006139;28;20049;-75
2021/08/17 12:41:35;;;;;;;30.88;19.33;;;16.20;99.90;;;;;;5022587;28;20061;-75
2021/08/17 12:44:15;;;;;;;30.58;18.77;;;16.40;99.90;;;;;;5033893;28;20038;-75